Time;durP1;ratioP1;P1;durP2;ratioP2;P2;SDS_P1;SDS_P2;PMS_P1;PMS_P2;Temp;Humidity;BMP_temperature;BMP_pressure;BME280_temperature;BME280_humidity;BME280_pressure;Samples;Min_cycle;Max_cycle;Signal;HPM_P1;HPM_P2
2023/07/05 00:33:09;;;;;;;27.57;19.17;;;15.60;99.90;;;;;;5703704;24;20245;-87
2023/07/05 00:48:58;;;;;;;28.43;19.83;;;15.30;99.90;;;;;;5641620;24;20575;-87
2023/07/05 01:09:25;;;;;;;27.60;19.30;;;14.80;99.90;;;;;;5760901;24;20274;-87
2023/07/05 01:13:45;;;;;;;34.23;23.30;;;14.90;99.90;;;;;;5725938;24;20261;-87
2023/07/05 01:29:36;;;;;;;24.70;17.73;;;14.70;99.90;;;;;;5722081;24;20662;-86
2023/07/05 02:00:00;;;;;;;29.33;19.07;;;14.50;99.90;;;;;;5828085;24;20180;-85
2023/07/05 02:20:18;;;;;;;24.27;17.67;;;14.80;99.90;;;;;;5862384;24;20197;-84
2023/07/05 02:45:24;;;;;;;37.17;29.60;;;14.20;99.90;;;;;;5713304;24;20197;-83
2023/07/05 03:10:47;;;;;;;28.53;19.97;;;14.50;99.90;;;;;;5695905;24;20191;-86
2023/07/05 03:31:16;;;;;;;34.57;23.47;;;14.80;99.90;;;;;;5931531;23;20166;-86
2023/07/05 03:51:33;;;;;;;35.13;24.93;;;15.40;99.90;;;;;;5747648;24;20247;-86
2023/07/05 04:11:51;;;;;;;31.73;22.90;;;16.40;99.90;;;;;;5742734;24;20677;-87
2023/07/05 05:27:58;;;;;;;22.70;15.43;;;19.90;84.30;;;;;;5635635;25;20580;-87
2023/07/05 05:58:25;;;;;;;18.50;14.17;;;20.80;82.00;;;;;;5862636;24;20615;-87
2023/07/05 06:54:18;;;;;;;15.25;12.57;;;23.40;70.50;;;;;;5838400;24;20304;-87
2023/07/05 07:14:25;;;;;;;12.70;10.38;;;23.80;61.70;;;;;;5936460;23;20477;-84
2023/07/05 07:39:51;;;;;;;16.15;11.40;;;24.80;55.90;;;;;;5665275;24;20180;-84
2023/07/05 07:59:52;;;;;;;14.23;12.00;;;26.00;51.80;;;;;;6104343;23;20194;-86
2023/07/05 08:35:34;;;;;;;15.55;11.82;;;26.80;50.70;;;;;;5763716;24;20807;-86
2023/07/05 09:10:46;;;;;;;17.00;12.68;;;27.50;47.50;;;;;;5928386;23;20441;-84
2023/07/05 09:36:37;;;;;;;16.08;13.65;;;28.40;46.30;;;;;;5831667;23;20207;-83
2023/07/05 09:57:09;;;;;;;15.55;13.80;;;28.50;46.50;;;;;;5750652;24;20216;-88
2023/07/05 10:01:22;;;;;;;16.63;13.95;;;28.40;46.70;;;;;;5704494;24;20516;-86
2023/07/05 10:57:19;;;;;;;16.85;13.85;;;29.30;46.50;;;;;;5638068;24;21241;-88
2023/07/05 11:13:06;;;;;;;18.35;13.95;;;29.60;45.30;;;;;;5670442;24;20209;-83
2023/07/05 11:43:19;;;;;;;14.73;11.50;;;29.50;45.10;;;;;;5627030;24;21017;-81
2023/07/05 12:08:54;;;;;;;18.65;11.55;;;29.60;45.40;;;;;;5605476;24;20168;-85
2023/07/05 12:44:24;;;;;;;15.25;13.13;;;30.50;45.80;;;;;;5885453;23;20291;-80
2023/07/05 13:04:45;;;;;;;12.77;11.23;;;30.00;45.10;;;;;;5931683;23;20314;-80
2023/07/05 13:29:56;;;;;;;13.55;11.68;;;31.10;44.30;;;;;;5665251;24;20976;-85
2023/07/05 14:30:47;;;;;;;10.63;9.40;;;34.60;44.30;;;;;;5757437;23;20257;-84
2023/07/05 14:55:47;;;;;;;10.45;9.35;;;35.30;43.10;;;;;;5767843;24;21107;-83
2023/07/05 15:36:23;;;;;;;12.45;9.68;;;33.40;43.60;;;;;;5782364;24;20283;-84
2023/07/05 15:57:10;;;;;;;12.13;9.60;;;31.80;43.10;;;;;;5737175;24;20185;-83
2023/07/05 16:27:37;;;;;;;12.98;10.48;;;30.00;44.00;;;;;;5589290;25;20283;-82
2023/07/05 16:57:55;;;;;;;13.27;10.50;;;28.40;44.30;;;;;;5855518;23;20183;-88
2023/07/05 17:23:26;;;;;;;14.10;10.43;;;27.60;45.00;;;;;;5703529;24;20190;-86
2023/07/05 17:53:19;;;;;;;14.48;10.70;;;27.20;45.80;;;;;;5603839;24;20552;-83
2023/07/05 18:13:57;;;;;;;12.95;9.73;;;26.60;45.80;;;;;;5701315;24;20200;-85
2023/07/05 18:39:15;;;;;;;6.70;4.40;;;25.40;50.00;;;;;;5664749;24;20192;-86
2023/07/05 19:25:05;;;;;;;7.25;4.70;;;24.30;55.20;;;;;;5717539;24;20223;-89
2023/07/05 20:00:43;;;;;;;4.40;3.95;;;23.90;71.10;;;;;;5971186;23;20161;-87
2023/07/05 20:35:56;;;;;;;6.68;4.57;;;21.50;94.10;;;;;;5784596;24;20554;-85
2023/07/05 21:11:02;;;;;;;6.03;4.90;;;21.00;97.00;;;;;;5730469;24;20967;-84
2023/07/05 21:31:22;;;;;;;6.67;5.90;;;20.30;99.90;;;;;;5792941;24;20703;-85
2023/07/05 21:46:51;;;;;;;11.67;7.03;;;19.80;99.90;;;;;;5690311;24;20247;-85
2023/07/05 22:58:07;;;;;;;8.83;7.93;;;19.20;99.90;;;;;;5717782;24;20232;-86
2023/07/05 23:43:32;;;;;;;10.30;8.43;;;18.70;99.90;;;;;;5872851;23;20857;-84
